sensor_id;sensor_type;location;lat;lon;timestamp;temperature;humidity
736;DHT22;352;48.626;9.238;2023-03-03T00:03:11;4.70;99.90
736;DHT22;352;48.626;9.238;2023-03-03T00:05:40;4.80;99.90
736;DHT22;352;48.626;9.238;2023-03-03T00:08:07;5.10;99.90
736;DHT22;352;48.626;9.238;2023-03-03T00:15:30;4.70;99.90
736;DHT22;352;48.626;9.238;2023-03-03T00:17:58;5.10;99.90
736;DHT22;352;48.626;9.238;2023-03-03T00:20:32;5.20;99.90
736;DHT22;352;48.626;9.238;2023-03-03T00:23:12;4.20;99.90
736;DHT22;352;48.626;9.238;2023-03-03T00:25:42;5.00;99.90
736;DHT22;352;48.626;9.238;2023-03-03T00:28:21;4.70;99.90
736;DHT22;352;48.626;9.238;2023-03-03T00:30:50;4.60;99.90
736;DHT22;352;48.626;9.238;2023-03-03T00:33:29;4.80;99.90
736;DHT22;352;48.626;9.238;2023-03-03T00:36:12;4.70;99.90
736;DHT22;352;48.626;9.238;2023-03-03T00:38:47;4.60;99.90
736;DHT22;352;48.626;9.238;2023-03-03T00:41:18;4.50;99.90
736;DHT22;352;48.626;9.238;2023-03-03T00:43:47;4.50;99.90
736;DHT22;352;48.626;9.238;2023-03-03T00:46:17;4.50;99.90
736;DHT22;352;48.626;9.238;2023-03-03T00:48:45;4.80;99.90
736;DHT22;352;48.626;9.238;2023-03-03T00:51:24;4.40;99.90
736;DHT22;352;48.626;9.238;2023-03-03T00:53:52;4.70;99.90
736;DHT22;352;48.626;9.238;2023-03-03T01:01:13;4.40;99.90
736;DHT22;352;48.626;9.238;2023-03-03T01:03:41;4.60;99.90
736;DHT22;352;48.626;9.238;2023-03-03T01:06:09;4.10;99.90
736;DHT22;352;48.626;9.238;2023-03-03T01:08:36;4.30;99.90
736;DHT22;352;48.626;9.238;2023-03-03T01:11:05;4.00;99.90
736;DHT22;352;48.626;9.238;2023-03-03T01:13:35;3.80;99.90
736;DHT22;352;48.626;9.238;2023-03-03T01:16:03;3.90;99.90
736;DHT22;352;48.626;9.238;2023-03-03T01:18:30;3.40;99.90
736;DHT22;352;48.626;9.238;2023-03-03T01:20:59;3.80;99.90
736;DHT22;352;48.626;9.238;2023-03-03T01:25:54;3.60;99.90
736;DHT22;352;48.626;9.238;2023-03-03T01:28:20;3.20;99.90
736;DHT22;352;48.626;9.238;2023-03-03T01:30:47;3.60;99.90
736;DHT22;352;48.626;9.238;2023-03-03T01:33:15;3.40;99.90
736;DHT22;352;48.626;9.238;2023-03-03T01:35:43;3.40;99.90
736;DHT22;352;48.626;9.238;2023-03-03T01:38:11;3.30;99.90
736;DHT22;352;48.626;9.238;2023-03-03T01:40:39;4.10;99.90
736;DHT22;352;48.626;9.238;2023-03-03T01:48:29;3.10;99.90
736;DHT22;352;48.626;9.238;2023-03-03T01:50:59;3.10;99.90
736;DHT22;352;48.626;9.238;2023-03-03T01:53:33;3.10;99.90
736;DHT22;352;48.626;9.238;2023-03-03T01:56:02;2.90;99.90
736;DHT22;352;48.626;9.238;2023-03-03T01:58:30;2.10;99.90
736;DHT22;352;48.626;9.238;2023-03-03T02:01:03;3.10;99.90
736;DHT22;352;48.626;9.238;2023-03-03T02:03:31;3.20;99.90
736;DHT22;352;48.626;9.238;2023-03-03T02:06:07;2.60;99.90
736;DHT22;352;48.626;9.238;2023-03-03T02:08:41;2.90;99.90
736;DHT22;352;48.626;9.238;2023-03-03T02:11:09;2.60;99.90
736;DHT22;352;48.626;9.238;2023-03-03T02:13:37;3.10;99.90
736;DHT22;352;48.626;9.238;2023-03-03T02:16:05;3.10;99.90
736;DHT22;352;48.626;9.238;2023-03-03T02:18:32;2.90;99.90
736;DHT22;352;48.626;9.238;2023-03-03T02:21:05;3.00;99.90
736;DHT22;352;48.626;9.238;2023-03-03T02:23:39;3.00;99.90
736;DHT22;352;48.626;9.238;2023-03-03T02:26:14;2.00;99.90
736;DHT22;352;48.626;9.238;2023-03-03T02:31:10;2.70;99.90
736;DHT22;352;48.626;9.238;2023-03-03T02:33:38;2.80;99.90
736;DHT22;352;48.626;9.238;2023-03-03T02:36:05;2.70;99.90
736;DHT22;352;48.626;9.238;2023-03-03T02:38:38;3.20;99.90
736;DHT22;352;48.626;9.238;2023-03-03T02:41:12;2.20;99.90
736;DHT22;352;48.626;9.238;2023-03-03T02:43:48;2.60;99.90
736;DHT22;352;48.626;9.238;2023-03-03T02:53:37;3.10;99.90
736;DHT22;352;48.626;9.238;2023-03-03T02:56:05;2.80;99.90
736;DHT22;352;48.626;9.238;2023-03-03T02:58:35;2.80;99.90
736;DHT22;352;48.626;9.238;2023-03-03T03:01:02;2.80;99.90
736;DHT22;352;48.626;9.238;2023-03-03T03:05:56;3.00;99.90
736;DHT22;352;48.626;9.238;2023-03-03T03:10:50;3.40;99.90
736;DHT22;352;48.626;9.238;2023-03-03T03:13:17;3.00;99.90
736;DHT22;352;48.626;9.238;2023-03-03T03:15:46;3.50;99.90
736;DHT22;352;48.626;9.238;2023-03-03T03:18:12;2.60;99.90
736;DHT22;352;48.626;9.238;2023-03-03T03:20:39;3.40;99.90
736;DHT22;352;48.626;9.238;2023-03-03T03:23:07;2.70;99.90
736;DHT22;352;48.626;9.238;2023-03-03T03:25:34;3.20;99.90
736;DHT22;352;48.626;9.238;2023-03-03T03:28:07;3.30;99.90
736;DHT22;352;48.626;9.238;2023-03-03T03:30:34;3.20;99.90
736;DHT22;352;48.626;9.238;2023-03-03T03:33:03;3.20;99.90
736;DHT22;352;48.626;9.238;2023-03-03T03:37:56;3.10;99.90
736;DHT22;352;48.626;9.238;2023-03-03T03:40:23;3.00;99.90
736;DHT22;352;48.626;9.238;2023-03-03T03:42:51;2.90;99.90
736;DHT22;352;48.626;9.238;2023-03-03T03:45:18;3.30;99.90
736;DHT22;352;48.626;9.238;2023-03-03T03:47:44;3.30;99.90
736;DHT22;352;48.626;9.238;2023-03-03T03:50:13;3.50;99.90
736;DHT22;352;48.626;9.238;2023-03-03T03:52:39;3.20;99.90
736;DHT22;352;48.626;9.238;2023-03-03T03:55:08;3.40;99.90
736;DHT22;352;48.626;9.238;2023-03-03T03:57:35;3.30;99.90
736;DHT22;352;48.626;9.238;2023-03-03T04:00:03;3.30;99.90
736;DHT22;352;48.626;9.238;2023-03-03T04:02:29;3.30;99.90
736;DHT22;352;48.626;9.238;2023-03-03T04:07:25;3.40;99.90
736;DHT22;352;48.626;9.238;2023-03-03T04:09:52;3.30;99.90
736;DHT22;352;48.626;9.238;2023-03-03T04:12:19;3.30;99.90
736;DHT22;352;48.626;9.238;2023-03-03T04:14:45;3.30;99.90
736;DHT22;352;48.626;9.238;2023-03-03T04:17:15;3.00;99.90
736;DHT22;352;48.626;9.238;2023-03-03T04:19:42;2.90;99.90
736;DHT22;352;48.626;9.238;2023-03-03T04:22:09;3.50;99.90
736;DHT22;352;48.626;9.238;2023-03-03T04:24:38;3.40;99.90
736;DHT22;352;48.626;9.238;2023-03-03T04:27:05;3.30;99.90
736;DHT22;352;48.626;9.238;2023-03-03T04:29:33;3.30;99.90
736;DHT22;352;48.626;9.238;2023-03-03T04:31:59;3.40;99.90
736;DHT22;352;48.626;9.238;2023-03-03T04:34:26;3.40;99.90
736;DHT22;352;48.626;9.238;2023-03-03T04:36:53;3.30;99.90
736;DHT22;352;48.626;9.238;2023-03-03T04:39:20;3.40;99.90
736;DHT22;352;48.626;9.238;2023-03-03T04:41:48;3.50;99.90
736;DHT22;352;48.626;9.238;2023-03-03T04:44:14;3.50;99.90
736;DHT22;352;48.626;9.238;2023-03-03T04:46:41;3.50;99.90
736;DHT22;352;48.626;9.238;2023-03-03T04:49:08;3.40;99.90
736;DHT22;352;48.626;9.238;2023-03-03T04:51:35;3.90;99.90
736;DHT22;352;48.626;9.238;2023-03-03T04:54:01;3.80;99.90
736;DHT22;352;48.626;9.238;2023-03-03T04:56:29;3.10;99.90
736;DHT22;352;48.626;9.238;2023-03-03T04:58:57;3.50;99.90
736;DHT22;352;48.626;9.238;2023-03-03T05:01:24;3.20;99.90
736;DHT22;352;48.626;9.238;2023-03-03T05:03:51;3.50;99.90
736;DHT22;352;48.626;9.238;2023-03-03T05:06:18;3.30;99.90
736;DHT22;352;48.626;9.238;2023-03-03T05:08:44;3.40;99.90
736;DHT22;352;48.626;9.238;2023-03-03T05:11:11;3.90;99.90
736;DHT22;352;48.626;9.238;2023-03-03T05:16:07;3.70;99.90
736;DHT22;352;48.626;9.238;2023-03-03T05:18:34;3.70;99.90
736;DHT22;352;48.626;9.238;2023-03-03T05:21:01;3.60;99.90
736;DHT22;352;48.626;9.238;2023-03-03T05:25:55;3.80;99.90
736;DHT22;352;48.626;9.238;2023-03-03T05:30:50;3.10;99.90
736;DHT22;352;48.626;9.238;2023-03-03T05:33:18;3.70;99.90
736;DHT22;352;48.626;9.238;2023-03-03T05:38:12;3.70;99.90
736;DHT22;352;48.626;9.238;2023-03-03T05:40:38;3.70;99.90
736;DHT22;352;48.626;9.238;2023-03-03T05:43:05;3.70;99.90
736;DHT22;352;48.626;9.238;2023-03-03T05:45:32;4.10;99.90
736;DHT22;352;48.626;9.238;2023-03-03T05:48:00;3.60;99.90
736;DHT22;352;48.626;9.238;2023-03-03T05:50:29;3.90;99.90
736;DHT22;352;48.626;9.238;2023-03-03T05:52:56;3.60;99.90
736;DHT22;352;48.626;9.238;2023-03-03T05:55:23;3.60;99.90
736;DHT22;352;48.626;9.238;2023-03-03T05:57:50;3.80;99.90
736;DHT22;352;48.626;9.238;2023-03-03T06:00:17;3.70;99.90
736;DHT22;352;48.626;9.238;2023-03-03T06:02:44;3.60;99.90
736;DHT22;352;48.626;9.238;2023-03-03T06:05:11;3.80;99.90
736;DHT22;352;48.626;9.238;2023-03-03T06:07:39;3.90;99.90
736;DHT22;352;48.626;9.238;2023-03-03T06:10:07;3.70;99.90
736;DHT22;352;48.626;9.238;2023-03-03T06:17:29;3.60;99.90
736;DHT22;352;48.626;9.238;2023-03-03T06:19:55;3.70;99.90
736;DHT22;352;48.626;9.238;2023-03-03T06:24:50;4.00;99.90
736;DHT22;352;48.626;9.238;2023-03-03T06:32:12;3.70;99.90
736;DHT22;352;48.626;9.238;2023-03-03T06:37:06;4.50;99.90
736;DHT22;352;48.626;9.238;2023-03-03T06:42:01;3.90;99.90
736;DHT22;352;48.626;9.238;2023-03-03T06:44:27;3.90;99.90
736;DHT22;352;48.626;9.238;2023-03-03T06:46:54;4.00;99.90
736;DHT22;352;48.626;9.238;2023-03-03T06:51:50;4.30;99.90
736;DHT22;352;48.626;9.238;2023-03-03T06:54:19;4.70;99.90
736;DHT22;352;48.626;9.238;2023-03-03T06:56:46;4.10;99.90
736;DHT22;352;48.626;9.238;2023-03-03T06:59:18;4.30;99.90
736;DHT22;352;48.626;9.238;2023-03-03T07:01:47;4.40;99.90
736;DHT22;352;48.626;9.238;2023-03-03T07:04:21;4.40;99.90
736;DHT22;352;48.626;9.238;2023-03-03T07:06:50;5.20;99.90
736;DHT22;352;48.626;9.238;2023-03-03T07:09:20;4.50;99.90
736;DHT22;352;48.626;9.238;2023-03-03T07:11:48;4.50;99.90
736;DHT22;352;48.626;9.238;2023-03-03T07:14:18;5.30;99.90
736;DHT22;352;48.626;9.238;2023-03-03T07:16:45;4.80;99.90
736;DHT22;352;48.626;9.238;2023-03-03T07:19:19;4.80;99.90
736;DHT22;352;48.626;9.238;2023-03-03T07:21:47;5.00;99.90
736;DHT22;352;48.626;9.238;2023-03-03T07:24:24;4.50;99.90
736;DHT22;352;48.626;9.238;2023-03-03T07:29:24;5.40;99.90
736;DHT22;352;48.626;9.238;2023-03-03T07:31:52;5.50;99.90
736;DHT22;352;48.626;9.238;2023-03-03T07:34:22;5.40;99.90
736;DHT22;352;48.626;9.238;2023-03-03T07:36:49;5.50;99.90
736;DHT22;352;48.626;9.238;2023-03-03T07:39:25;5.60;99.90
736;DHT22;352;48.626;9.238;2023-03-03T07:41:56;5.70;99.90
736;DHT22;352;48.626;9.238;2023-03-03T07:44:30;5.40;99.90
736;DHT22;352;48.626;9.238;2023-03-03T07:47:14;5.90;99.90
736;DHT22;352;48.626;9.238;2023-03-03T07:49:43;6.10;99.90
736;DHT22;352;48.626;9.238;2023-03-03T07:52:25;6.20;99.90
736;DHT22;352;48.626;9.238;2023-03-03T07:54:53;6.10;99.90
736;DHT22;352;48.626;9.238;2023-03-03T07:57:24;6.30;99.90
736;DHT22;352;48.626;9.238;2023-03-03T07:59:54;5.50;99.90
736;DHT22;352;48.626;9.238;2023-03-03T08:02:38;6.50;99.90
736;DHT22;352;48.626;9.238;2023-03-03T08:05:24;6.60;99.90
736;DHT22;352;48.626;9.238;2023-03-03T08:07:53;6.80;99.90
736;DHT22;352;48.626;9.238;2023-03-03T08:10:43;7.20;99.90
736;DHT22;352;48.626;9.238;2023-03-03T08:13:17;7.30;99.90
736;DHT22;352;48.626;9.238;2023-03-03T08:15:47;7.50;99.90
736;DHT22;352;48.626;9.238;2023-03-03T08:18:23;7.70;99.90
736;DHT22;352;48.626;9.238;2023-03-03T08:20:52;7.90;99.90
736;DHT22;352;48.626;9.238;2023-03-03T08:25:48;8.00;99.90
736;DHT22;352;48.626;9.238;2023-03-03T08:28:15;8.20;99.90
736;DHT22;352;48.626;9.238;2023-03-03T08:30:43;8.40;99.60
736;DHT22;352;48.626;9.238;2023-03-03T08:33:12;8.60;99.30
736;DHT22;352;48.626;9.238;2023-03-03T08:50:23;10.50;99.90
736;DHT22;352;48.626;9.238;2023-03-03T09:00:13;11.00;98.90
736;DHT22;352;48.626;9.238;2023-03-03T09:05:08;10.40;91.80
736;DHT22;352;48.626;9.238;2023-03-03T09:07:37;11.00;92.40
736;DHT22;352;48.626;9.238;2023-03-03T09:10:04;11.20;92.10
736;DHT22;352;48.626;9.238;2023-03-03T09:12:34;11.30;92.00
736;DHT22;352;48.626;9.238;2023-03-03T09:15:14;11.30;91.80
736;DHT22;352;48.626;9.238;2023-03-03T09:20:31;11.20;91.50
736;DHT22;352;48.626;9.238;2023-03-03T09:23:21;11.10;92.50
736;DHT22;352;48.626;9.238;2023-03-03T09:25:51;10.90;91.90
736;DHT22;352;48.626;9.238;2023-03-03T09:28:23;10.70;92.40
736;DHT22;352;48.626;9.238;2023-03-03T09:30:51;10.70;93.10
736;DHT22;352;48.626;9.238;2023-03-03T09:33:26;10.60;92.60
736;DHT22;352;48.626;9.238;2023-03-03T09:35:57;10.50;93.00
736;DHT22;352;48.626;9.238;2023-03-03T09:38:29;10.50;92.80
736;DHT22;352;48.626;9.238;2023-03-03T09:41:21;10.20;98.10
736;DHT22;352;48.626;9.238;2023-03-03T09:44:19;10.40;93.10
736;DHT22;352;48.626;9.238;2023-03-03T09:47:01;10.20;92.80
736;DHT22;352;48.626;9.238;2023-03-03T09:49:32;10.20;99.90
736;DHT22;352;48.626;9.238;2023-03-03T09:52:10;10.10;93.00
736;DHT22;352;48.626;9.238;2023-03-03T09:54:51;10.20;99.90
736;DHT22;352;48.626;9.238;2023-03-03T09:57:24;10.50;96.60
736;DHT22;352;48.626;9.238;2023-03-03T10:00:08;11.80;97.50
736;DHT22;352;48.626;9.238;2023-03-03T10:02:51;11.50;99.90
736;DHT22;352;48.626;9.238;2023-03-03T10:05:29;11.70;92.40
736;DHT22;352;48.626;9.238;2023-03-03T10:08:11;12.10;90.80
736;DHT22;352;48.626;9.238;2023-03-03T10:10:52;12.80;89.30
736;DHT22;352;48.626;9.238;2023-03-03T10:13:33;13.20;97.50
736;DHT22;352;48.626;9.238;2023-03-03T10:16:16;13.70;96.10
736;DHT22;352;48.626;9.238;2023-03-03T10:18:50;13.30;97.70
736;DHT22;352;48.626;9.238;2023-03-03T10:21:23;13.40;85.30
736;DHT22;352;48.626;9.238;2023-03-03T10:24:00;13.60;85.50
736;DHT22;352;48.626;9.238;2023-03-03T10:26:59;13.60;86.40
736;DHT22;352;48.626;9.238;2023-03-03T10:29:34;13.60;85.30
736;DHT22;352;48.626;9.238;2023-03-03T10:32:24;13.30;86.20
736;DHT22;352;48.626;9.238;2023-03-03T10:35:07;13.10;86.80
736;DHT22;352;48.626;9.238;2023-03-03T10:37:48;13.00;87.70
736;DHT22;352;48.626;9.238;2023-03-03T10:40:21;13.20;86.40
736;DHT22;352;48.626;9.238;2023-03-03T10:43:06;13.50;99.90
736;DHT22;352;48.626;9.238;2023-03-03T10:45:58;14.10;98.30
736;DHT22;352;48.626;9.238;2023-03-03T10:48:43;13.90;97.90
736;DHT22;352;48.626;9.238;2023-03-03T10:51:21;14.40;92.10
736;DHT22;352;48.626;9.238;2023-03-03T10:54:00;15.50;83.50
736;DHT22;352;48.626;9.238;2023-03-03T10:56:38;14.60;99.30
736;DHT22;352;48.626;9.238;2023-03-03T10:59:22;14.90;81.50
736;DHT22;352;48.626;9.238;2023-03-03T11:01:57;14.70;92.70
736;DHT22;352;48.626;9.238;2023-03-03T11:04:42;14.10;80.40
736;DHT22;352;48.626;9.238;2023-03-03T11:07:18;14.20;90.30
736;DHT22;352;48.626;9.238;2023-03-03T11:09:57;14.30;82.80
736;DHT22;352;48.626;9.238;2023-03-03T11:12:33;14.70;81.80
736;DHT22;352;48.626;9.238;2023-03-03T11:15:23;15.00;81.30
736;DHT22;352;48.626;9.238;2023-03-03T11:18:06;14.80;80.40
736;DHT22;352;48.626;9.238;2023-03-03T11:20:40;14.70;88.20
736;DHT22;352;48.626;9.238;2023-03-03T11:23:37;14.80;80.60
736;DHT22;352;48.626;9.238;2023-03-03T11:26:11;15.40;95.70
736;DHT22;352;48.626;9.238;2023-03-03T11:28:52;14.70;92.50
736;DHT22;352;48.626;9.238;2023-03-03T11:31:29;14.30;83.30
736;DHT22;352;48.626;9.238;2023-03-03T11:34:02;14.20;79.50
736;DHT22;352;48.626;9.238;2023-03-03T11:36:35;14.10;79.90
736;DHT22;352;48.626;9.238;2023-03-03T11:39:04;14.00;81.30
736;DHT22;352;48.626;9.238;2023-03-03T11:41:35;13.50;79.80
736;DHT22;352;48.626;9.238;2023-03-03T11:44:09;13.10;81.60
736;DHT22;352;48.626;9.238;2023-03-03T11:46:45;12.80;81.90
736;DHT22;352;48.626;9.238;2023-03-03T11:49:18;12.40;83.10
736;DHT22;352;48.626;9.238;2023-03-03T11:51:52;12.50;85.10
736;DHT22;352;48.626;9.238;2023-03-03T11:54:23;12.60;86.00
736;DHT22;352;48.626;9.238;2023-03-03T11:56:57;12.70;99.90
736;DHT22;352;48.626;9.238;2023-03-03T11:59:38;13.20;84.10
736;DHT22;352;48.626;9.238;2023-03-03T12:02:22;13.40;84.40
736;DHT22;352;48.626;9.238;2023-03-03T12:04:53;13.70;99.90
736;DHT22;352;48.626;9.238;2023-03-03T12:07:28;14.00;99.30
736;DHT22;352;48.626;9.238;2023-03-03T12:10:07;13.20;99.90
736;DHT22;352;48.626;9.238;2023-03-03T12:12:41;13.30;81.30
736;DHT22;352;48.626;9.238;2023-03-03T12:15:18;13.10;82.50
736;DHT22;352;48.626;9.238;2023-03-03T12:18:12;12.90;82.80
736;DHT22;352;48.626;9.238;2023-03-03T12:20:47;12.80;97.00
736;DHT22;352;48.626;9.238;2023-03-03T12:23:32;12.40;83.80
736;DHT22;352;48.626;9.238;2023-03-03T12:26:05;12.40;84.60
736;DHT22;352;48.626;9.238;2023-03-03T12:28:37;12.20;84.90
736;DHT22;352;48.626;9.238;2023-03-03T12:31:18;12.20;85.80
736;DHT22;352;48.626;9.238;2023-03-03T12:33:56;12.20;89.50
736;DHT22;352;48.626;9.238;2023-03-03T12:36:55;11.90;99.20
736;DHT22;352;48.626;9.238;2023-03-03T12:39:38;12.20;85.90
736;DHT22;352;48.626;9.238;2023-03-03T12:42:13;12.10;85.50
736;DHT22;352;48.626;9.238;2023-03-03T12:44:46;12.00;85.20
736;DHT22;352;48.626;9.238;2023-03-03T12:47:15;11.90;85.20
736;DHT22;352;48.626;9.238;2023-03-03T12:49:58;11.30;99.90
736;DHT22;352;48.626;9.238;2023-03-03T12:52:33;11.50;87.10
736;DHT22;352;48.626;9.238;2023-03-03T12:55:15;11.50;99.90
736;DHT22;352;48.626;9.238;2023-03-03T12:57:51;12.20;99.90
736;DHT22;352;48.626;9.238;2023-03-03T13:00:27;11.70;99.90
736;DHT22;352;48.626;9.238;2023-03-03T13:03:00;11.90;86.80
736;DHT22;352;48.626;9.238;2023-03-03T13:05:42;11.90;86.30
736;DHT22;352;48.626;9.238;2023-03-03T13:08:28;11.90;86.50
736;DHT22;352;48.626;9.238;2023-03-03T13:11:04;12.00;86.90
736;DHT22;352;48.626;9.238;2023-03-03T13:13:35;12.10;87.20
736;DHT22;352;48.626;9.238;2023-03-03T13:16:09;12.60;99.90
736;DHT22;352;48.626;9.238;2023-03-03T13:18:47;11.90;86.80
736;DHT22;352;48.626;9.238;2023-03-03T13:21:20;11.80;87.40
736;DHT22;352;48.626;9.238;2023-03-03T13:23:50;11.90;87.70
736;DHT22;352;48.626;9.238;2023-03-03T13:26:25;12.00;87.50
736;DHT22;352;48.626;9.238;2023-03-03T13:29:03;12.00;87.20
736;DHT22;352;48.626;9.238;2023-03-03T13:31:37;11.90;87.10
736;DHT22;352;48.626;9.238;2023-03-03T13:34:07;12.00;86.90
736;DHT22;352;48.626;9.238;2023-03-03T13:36:43;12.00;87.70
736;DHT22;352;48.626;9.238;2023-03-03T13:39:20;11.90;99.90
736;DHT22;352;48.626;9.238;2023-03-03T13:41:51;12.00;86.30
736;DHT22;352;48.626;9.238;2023-03-03T13:44:24;12.30;99.90
736;DHT22;352;48.626;9.238;2023-03-03T13:47:05;11.70;99.90
736;DHT22;352;48.626;9.238;2023-03-03T13:49:44;11.80;88.00
736;DHT22;352;48.626;9.238;2023-03-03T13:52:18;11.80;88.40
736;DHT22;352;48.626;9.238;2023-03-03T13:55:10;11.70;90.70
736;DHT22;352;48.626;9.238;2023-03-03T13:57:58;11.60;99.90
736;DHT22;352;48.626;9.238;2023-03-03T14:00:31;11.50;88.30
736;DHT22;352;48.626;9.238;2023-03-03T14:03:10;11.40;88.90
736;DHT22;352;48.626;9.238;2023-03-03T14:05:44;11.40;88.60
736;DHT22;352;48.626;9.238;2023-03-03T14:08:24;11.40;89.90
736;DHT22;352;48.626;9.238;2023-03-03T14:11:06;11.40;89.20
736;DHT22;352;48.626;9.238;2023-03-03T14:13:43;11.40;88.10
736;DHT22;352;48.626;9.238;2023-03-03T14:16:19;11.50;89.00
736;DHT22;352;48.626;9.238;2023-03-03T14:18:54;11.50;89.10
736;DHT22;352;48.626;9.238;2023-03-03T14:21:27;11.40;87.80
736;DHT22;352;48.626;9.238;2023-03-03T14:24:01;11.50;87.70
736;DHT22;352;48.626;9.238;2023-03-03T14:26:45;11.40;87.50
736;DHT22;352;48.626;9.238;2023-03-03T14:29:29;11.40;88.00
736;DHT22;352;48.626;9.238;2023-03-03T14:31:58;11.50;87.10
736;DHT22;352;48.626;9.238;2023-03-03T14:34:35;11.20;90.30
736;DHT22;352;48.626;9.238;2023-03-03T14:37:22;11.50;86.00
736;DHT22;352;48.626;9.238;2023-03-03T14:40:17;12.80;89.40
736;DHT22;352;48.626;9.238;2023-03-03T14:42:53;11.20;99.90
736;DHT22;352;48.626;9.238;2023-03-03T14:45:29;11.30;88.20
736;DHT22;352;48.626;9.238;2023-03-03T14:47:57;11.40;87.10
736;DHT22;352;48.626;9.238;2023-03-03T14:50:35;12.10;87.80
736;DHT22;352;48.626;9.238;2023-03-03T14:53:11;11.20;87.30
736;DHT22;352;48.626;9.238;2023-03-03T14:55:42;11.10;86.80
736;DHT22;352;48.626;9.238;2023-03-03T14:58:30;11.10;86.50
736;DHT22;352;48.626;9.238;2023-03-03T15:01:11;11.20;91.10
736;DHT22;352;48.626;9.238;2023-03-03T15:03:44;11.00;86.80
736;DHT22;352;48.626;9.238;2023-03-03T15:06:29;11.00;87.70
736;DHT22;352;48.626;9.238;2023-03-03T15:11:29;10.90;87.10
736;DHT22;352;48.626;9.238;2023-03-03T15:14:10;11.00;87.90
736;DHT22;352;48.626;9.238;2023-03-03T15:16:37;10.80;90.90
736;DHT22;352;48.626;9.238;2023-03-03T15:22:04;10.90;87.20
736;DHT22;352;48.626;9.238;2023-03-03T15:24:39;10.90;88.40
736;DHT22;352;48.626;9.238;2023-03-03T15:27:12;10.90;87.90
736;DHT22;352;48.626;9.238;2023-03-03T15:29:53;10.80;87.70
736;DHT22;352;48.626;9.238;2023-03-03T15:32:27;10.80;88.50
736;DHT22;352;48.626;9.238;2023-03-03T15:34:58;10.80;88.70
736;DHT22;352;48.626;9.238;2023-03-03T15:37:37;10.80;88.40
736;DHT22;352;48.626;9.238;2023-03-03T15:40:14;10.80;88.80
736;DHT22;352;48.626;9.238;2023-03-03T15:42:47;10.70;89.00
736;DHT22;352;48.626;9.238;2023-03-03T15:45:20;10.60;89.20
736;DHT22;352;48.626;9.238;2023-03-03T15:48:01;10.50;89.00
736;DHT22;352;48.626;9.238;2023-03-03T15:50:39;10.40;89.40
736;DHT22;352;48.626;9.238;2023-03-03T15:53:25;10.50;90.00
736;DHT22;352;48.626;9.238;2023-03-03T15:56:08;10.60;90.10
736;DHT22;352;48.626;9.238;2023-03-03T15:59:06;10.50;90.00
736;DHT22;352;48.626;9.238;2023-03-03T16:01:40;10.40;89.90
736;DHT22;352;48.626;9.238;2023-03-03T16:04:11;10.30;89.70
736;DHT22;352;48.626;9.238;2023-03-03T16:06:45;10.30;90.20
736;DHT22;352;48.626;9.238;2023-03-03T16:09:22;10.30;90.40
736;DHT22;352;48.626;9.238;2023-03-03T16:11:56;10.20;90.40
736;DHT22;352;48.626;9.238;2023-03-03T16:14:48;10.20;90.10
736;DHT22;352;48.626;9.238;2023-03-03T16:17:23;10.10;90.20
736;DHT22;352;48.626;9.238;2023-03-03T16:19:58;10.00;90.10
736;DHT22;352;48.626;9.238;2023-03-03T16:25:12;10.10;90.20
736;DHT22;352;48.626;9.238;2023-03-03T16:27:47;10.00;90.50
736;DHT22;352;48.626;9.238;2023-03-03T16:30:26;9.90;91.10
736;DHT22;352;48.626;9.238;2023-03-03T16:33:04;9.80;91.10
736;DHT22;352;48.626;9.238;2023-03-03T16:35:36;9.60;91.30
736;DHT22;352;48.626;9.238;2023-03-03T16:38:10;9.50;91.40
736;DHT22;352;48.626;9.238;2023-03-03T16:40:43;9.40;91.70
736;DHT22;352;48.626;9.238;2023-03-03T16:43:19;9.30;92.00
736;DHT22;352;48.626;9.238;2023-03-03T16:45:49;9.20;92.10
736;DHT22;352;48.626;9.238;2023-03-03T16:48:27;9.20;92.40
736;DHT22;352;48.626;9.238;2023-03-03T16:51:20;9.10;92.50
736;DHT22;352;48.626;9.238;2023-03-03T16:53:53;9.00;92.80
736;DHT22;352;48.626;9.238;2023-03-03T16:56:23;8.90;92.90
736;DHT22;352;48.626;9.238;2023-03-03T16:59:15;8.80;93.00
736;DHT22;352;48.626;9.238;2023-03-03T17:01:50;8.70;93.20
736;DHT22;352;48.626;9.238;2023-03-03T17:04:33;8.60;93.30
736;DHT22;352;48.626;9.238;2023-03-03T17:07:11;8.50;93.50
736;DHT22;352;48.626;9.238;2023-03-03T17:09:48;8.40;93.60
736;DHT22;352;48.626;9.238;2023-03-03T17:12:30;8.40;93.80
736;DHT22;352;48.626;9.238;2023-03-03T17:15:19;8.30;94.00
736;DHT22;352;48.626;9.238;2023-03-03T17:17:54;8.20;94.10
736;DHT22;352;48.626;9.238;2023-03-03T17:20:31;8.20;94.20
736;DHT22;352;48.626;9.238;2023-03-03T17:23:21;8.00;94.30
736;DHT22;352;48.626;9.238;2023-03-03T17:25:58;8.00;94.50
736;DHT22;352;48.626;9.238;2023-03-03T17:28:35;7.90;94.60
736;DHT22;352;48.626;9.238;2023-03-03T17:31:10;7.80;94.70
736;DHT22;352;48.626;9.238;2023-03-03T17:33:57;7.80;94.80
736;DHT22;352;48.626;9.238;2023-03-03T17:36:38;7.70;94.90
736;DHT22;352;48.626;9.238;2023-03-03T17:39:21;7.60;94.90
736;DHT22;352;48.626;9.238;2023-03-03T17:41:59;7.60;95.00
736;DHT22;352;48.626;9.238;2023-03-03T17:44:34;7.60;95.10
736;DHT22;352;48.626;9.238;2023-03-03T17:47:04;7.50;95.10
736;DHT22;352;48.626;9.238;2023-03-03T17:49:54;7.40;95.10
736;DHT22;352;48.626;9.238;2023-03-03T17:55:42;7.40;95.40
736;DHT22;352;48.626;9.238;2023-03-03T17:58:29;7.30;95.40
736;DHT22;352;48.626;9.238;2023-03-03T18:01:06;7.30;95.50
736;DHT22;352;48.626;9.238;2023-03-03T18:03:54;7.10;95.50
736;DHT22;352;48.626;9.238;2023-03-03T18:09:43;7.10;95.70
736;DHT22;352;48.626;9.238;2023-03-03T18:12:20;7.00;95.80
736;DHT22;352;48.626;9.238;2023-03-03T18:15:08;6.80;99.90
736;DHT22;352;48.626;9.238;2023-03-03T18:17:46;7.00;96.00
736;DHT22;352;48.626;9.238;2023-03-03T18:20:31;7.10;99.90
736;DHT22;352;48.626;9.238;2023-03-03T18:23:27;6.90;96.00
736;DHT22;352;48.626;9.238;2023-03-03T18:25:56;6.90;96.10
736;DHT22;352;48.626;9.238;2023-03-03T18:28:36;6.90;96.20
736;DHT22;352;48.626;9.238;2023-03-03T18:31:18;6.80;96.20
736;DHT22;352;48.626;9.238;2023-03-03T18:34:00;6.80;96.40
736;DHT22;352;48.626;9.238;2023-03-03T18:36:36;6.70;96.40
736;DHT22;352;48.626;9.238;2023-03-03T18:39:05;6.70;96.40
736;DHT22;352;48.626;9.238;2023-03-03T18:42:07;6.70;96.60
736;DHT22;352;48.626;9.238;2023-03-03T18:49:52;6.60;96.60
736;DHT22;352;48.626;9.238;2023-03-03T18:52:23;6.60;96.70
736;DHT22;352;48.626;9.238;2023-03-03T19:00:54;6.50;97.00
736;DHT22;352;48.626;9.238;2023-03-03T19:03:27;6.30;99.90
736;DHT22;352;48.626;9.238;2023-03-03T19:05:54;6.40;99.90
736;DHT22;352;48.626;9.238;2023-03-03T19:08:24;6.50;97.20
736;DHT22;352;48.626;9.238;2023-03-03T19:10:56;6.40;97.30
736;DHT22;352;48.626;9.238;2023-03-03T19:13:42;6.40;97.30
736;DHT22;352;48.626;9.238;2023-03-03T19:16:26;6.40;97.40
736;DHT22;352;48.626;9.238;2023-03-03T19:19:00;6.30;99.90
736;DHT22;352;48.626;9.238;2023-03-03T19:21:29;6.40;97.60
736;DHT22;352;48.626;9.238;2023-03-03T19:23:58;6.40;97.70
736;DHT22;352;48.626;9.238;2023-03-03T19:26:39;6.40;99.90
736;DHT22;352;48.626;9.238;2023-03-03T19:29:20;6.40;97.90
736;DHT22;352;48.626;9.238;2023-03-03T19:31:55;6.50;98.00
736;DHT22;352;48.626;9.238;2023-03-03T19:34:28;6.50;98.00
736;DHT22;352;48.626;9.238;2023-03-03T19:37:10;6.50;98.00